Arklow Rogue — EIGD — position and weather

sailwx.info

Track history (hours):
 
Tides and Currents Weather Stations Pressure Air Temp Water Temp Dewpoint Dewpoint Depression Visibility Wind Speed Wind Dir Waves Ship Positions

Arklow Rogue

Last reported at 2018-Feb-23 01:01 UTC. Time now 2018-Feb-23 01:12 UTC.
Position N 43°41' W 005°42'.

Length 90 m; draft 3.4 m.

Type: Cargo ship. MMSI: 250000960.

Date/timePositionNaut miles runAvg speedWind from/ knotsBaromVisibWave heightAir tempDewpointWater temp
2018-Feb-23 01:01N 43°41' W 005°42'611.4
2018-Feb-23 00:31N 43°41' W 005°34'611.5
2018-Feb-23 00:00N 43°40' W 005°26'611.7
2018-Feb-22 23:31N 43°39' W 005°18'611.6
2018-Feb-22 23:00N 43°38' W 005°10'61 2.8
2018-Feb-22 01:05N 43°33' W 003°46'111.3
2018-Feb-22 01:00N 43°34' W 003°47'24411.2
2018-Feb-21 03:14N 47°31' W 005°05'310.6
2018-Feb-21 03:00N 47°34' W 005°06'510.5
2018-Feb-21 02:30N 47°39' W 005°07'510.7
2018-Feb-21 02:00N 47°44' W 005°09'611.0
2018-Feb-21 01:30N 47°49' W 005°11'611.3
2018-Feb-21 01:01N 47°55' W 005°13'611.7
2018-Feb-21 00:30N 48°01' W 005°15'612.0
2018-Feb-21 00:01N 48°06' W 005°17'612.0
2018-Feb-20 23:30N 48°12' W 005°20'612.2
2018-Feb-20 23:00N 48°18' W 005°23'612.1
2018-Feb-20 22:30N 48°24' W 005°25'612.0
2018-Feb-20 22:00N 48°30' W 005°26'510.7
2018-Feb-20 21:29N 48°34' W 005°20'510.5
2018-Feb-20 21:00N 48°38' W 005°15'5 9.5
2018-Feb-20 20:30N 48°41' W 005°10'5 9.2
2018-Feb-20 20:00N 48°44' W 005°05'4 8.5
2018-Feb-20 19:30N 48°47' W 005°00'4 8.3
2018-Feb-20 19:00N 48°50' W 004°55'4 8.1
2018-Feb-20 18:30N 48°52' W 004°51'4 8.2
2018-Feb-20 18:00N 48°55' W 004°46'6 8.6
2018-Feb-20 17:21N 48°59' W 004°40'6910.8
2018-Feb-20 10:56N 49°45' W 003°20'4 9.4
2018-Feb-20 10:30N 49°48' W 003°16'5 9.1
2018-Feb-20 10:00N 49°51' W 003°10'4 8.9
2018-Feb-20 09:30N 49°53' W 003°04'4 8.8
2018-Feb-20 09:00N 49°56' W 002°59'5 8.8
2018-Feb-20 08:28N 49°58' W 002°53'4 9.3
2018-Feb-20 08:00N 49°60' W 002°46'510.0
2018-Feb-20 07:30N 50°01' W 002°39'510.6
2018-Feb-20 07:00N 50°03' W 002°31'2913.2
2018-Feb-20 04:47N 50°11' W 001°47'414.6
2018-Feb-20 04:28N 50°13' W 001°40'714.5
2018-Feb-20 04:00N 50°14' W 001°30'714.2
2018-Feb-20 03:30N 50°16' W 001°20'3611.4
2018-Feb-20 00:23N 50°27' W 000°26'3 9.3
2018-Feb-20 00:00N 50°28' W 000°21'4 8.7
2018-Feb-19 23:30N 50°29' W 000°14'4 8.9
2018-Feb-19 23:00N 50°30' W 000°07'5 9.0
2018-Feb-19 22:30N 50°31' W 000°01'5 9.3
2018-Feb-19 22:00N 50°33' E 000°06'1510.5
2018-Feb-19 20:35N 50°37' E 000°29'111.7
2018-Feb-19 20:30N 50°37' E 000°31'611.9
2018-Feb-19 20:00N 50°40' E 000°38'612.6
2018-Feb-19 19:30N 50°44' E 000°47'612.7
2018-Feb-19 19:00N 50°47' E 000°55'612.4
2018-Feb-19 18:28N 50°51' E 001°03'612.0
2018-Feb-19 18:00N 50°55' E 001°10'611.6
2018-Feb-19 17:30N 50°59' E 001°17'510.7
2018-Feb-19 17:00N 51°02' E 001°24'510.0
2018-Feb-19 16:30N 51°05' E 001°30'4 8.6
2018-Feb-19 16:00N 51°08' E 001°35'4 7.8
2018-Feb-19 15:30N 51°11' E 001°38'4 7.8
2018-Feb-19 15:00N 51°15' E 001°41'4 8.2
2018-Feb-19 14:30N 51°19' E 001°43'4 8.6
2018-Feb-19 14:00N 51°23' E 001°45'5 9.6
2018-Feb-19 13:30N 51°27' E 001°48'510.4
2018-Feb-19 13:00N 51°32' E 001°52'611.4
2018-Feb-19 12:30N 51°36' E 001°58'712.6
2018-Feb-19 11:59N 51°41' E 002°05'37310.6
2018-Feb-18 00:46N 56°56' E 007°46'310.8
2018-Feb-18 00:30N 56°59' E 007°49'610.8
2018-Feb-17 23:59N 57°03' E 007°55'510.6
2018-Feb-17 23:30N 57°08' E 007°60'510.6
2018-Feb-17 23:00N 57°12' E 008°05'8511.1
2018-Feb-17 15:20N 58°26' E 009°25'412.2
2018-Feb-17 15:00N 58°30' E 009°28'612.1
2018-Feb-17 14:30N 58°35' E 009°32'612.6
2018-Feb-17 14:00N 58°41' E 009°36'713.5
2018-Feb-17 13:30N 58°47' E 009°41'612.5
2018-Feb-17 13:00N 58°53' E 009°45'611.6
2018-Feb-17 12:30N 58°59' E 009°47'5 9.3
2018-Feb-17 12:00N 59°03' E 009°42'5 9.1
2018-Feb-17 11:30N 59°07' E 009°37'1 1.2
2018-Feb-17 10:58N 59°07' E 009°37'0 0.0
2018-Feb-17 10:28N 59°07' E 009°37'0 0.0
2018-Feb-17 09:58N 59°07' E 009°37'0 0.0
2018-Feb-17 09:28N 59°07' E 009°37'0 0.0
2018-Feb-17 08:58N 59°07' E 009°37'0 0.0
2018-Feb-17 08:28N 59°07' E 009°37'0 0.0
2018-Feb-17 07:58N 59°07' E 009°37'0 0.0
2018-Feb-17 07:28N 59°07' E 009°37'0 0.0
2018-Feb-17 06:58N 59°07' E 009°37'0 0.0
2018-Feb-17 06:28N 59°07' E 009°37'0 0.0
2018-Feb-17 05:58N 59°07' E 009°37'0 0.0
2018-Feb-17 05:28N 59°07' E 009°37'0 0.0
2018-Feb-17 04:58N 59°07' E 009°37'0 0.0
2018-Feb-17 04:28N 59°07' E 009°37'0 0.0
2018-Feb-17 03:58N 59°07' E 009°37'0 0.0
2018-Feb-17 03:28N 59°07' E 009°37'0 0.0
2018-Feb-17 02:58N 59°07' E 009°37'0 0.0
2018-Feb-17 02:28N 59°07' E 009°37'0 0.0
2018-Feb-17 01:58N 59°07' E 009°37'0 0.0
2018-Feb-17 01:28N 59°07' E 009°37'0 0.0
2018-Feb-17 00:58N 59°07' E 009°37'0 0.0
2018-Feb-17 00:28N 59°07' E 009°37'0 0.0
2018-Feb-16 23:58N 59°07' E 009°37'0 0.0
2018-Feb-16 23:28N 59°07' E 009°37'0 0.0
2018-Feb-16 22:58N 59°07' E 009°37'0 0.0
2018-Feb-16 22:28N 59°07' E 009°37'0 0.0
2018-Feb-16 21:58N 59°07' E 009°37'0 0.0
2018-Feb-16 21:28N 59°07' E 009°37'0 0.0
2018-Feb-16 20:58N 59°07' E 009°37'0 0.0
2018-Feb-16 20:28N 59°07' E 009°37'0 0.0
2018-Feb-16 19:58N 59°07' E 009°37'0 0.0
2018-Feb-16 19:28N 59°07' E 009°37'0 0.0
2018-Feb-16 18:58N 59°07' E 009°37'0 0.0
2018-Feb-16 18:28N 59°07' E 009°37'0 0.0
2018-Feb-16 17:58N 59°07' E 009°37'0 0.0
2018-Feb-16 17:28N 59°07' E 009°37'0 0.0
2018-Feb-16 16:58N 59°07' E 009°37'0 0.0
2018-Feb-16 16:28N 59°07' E 009°37'0 0.0
2018-Feb-16 15:58N 59°07' E 009°37'0 0.0
2018-Feb-16 15:28N 59°07' E 009°37'0 0.0
2018-Feb-16 14:58N 59°07' E 009°37'0 0.0
2018-Feb-16 14:28N 59°07' E 009°37'0 0.0
2018-Feb-16 13:58N 59°07' E 009°37'0 0.0
2018-Feb-16 13:28N 59°07' E 009°37'0 0.0
2018-Feb-16 12:58N 59°07' E 009°37'0 0.0
2018-Feb-16 12:28N 59°07' E 009°37'0 0.0
2018-Feb-16 11:58N 59°07' E 009°37'0 0.0
2018-Feb-16 11:28N 59°07' E 009°37'0 0.0
2018-Feb-16 10:58N 59°07' E 009°37'0 0.2
2018-Feb-16 10:28N 59°07' E 009°37'0 0.0
2018-Feb-16 09:58N 59°07' E 009°37'0 0.0
2018-Feb-16 09:28N 59°07' E 009°37'0 0.0
2018-Feb-16 08:58N 59°07' E 009°37'0 0.0
2018-Feb-16 08:28N 59°07' E 009°37'0 0.0
2018-Feb-16 07:58N 59°07' E 009°37'0 0.0
2018-Feb-16 07:28N 59°07' E 009°37'0 0.0
2018-Feb-16 06:58N 59°07' E 009°37'0 0.0
2018-Feb-16 06:28N 59°07' E 009°37'0 0.0
2018-Feb-16 05:58N 59°07' E 009°37'0 0.0
2018-Feb-16 05:28N 59°07' E 009°37'0 0.0
2018-Feb-16 04:58N 59°07' E 009°37'0 0.0
2018-Feb-16 04:28N 59°07' E 009°37'0 0.0
2018-Feb-16 03:58N 59°07' E 009°37'0 0.0
2018-Feb-16 03:28N 59°07' E 009°37'0 0.0
2018-Feb-16 02:58N 59°07' E 009°37'0 0.0
2018-Feb-16 02:28N 59°07' E 009°37'0 0.0
2018-Feb-16 01:58N 59°07' E 009°37'0 0.0
2018-Feb-16 01:28N 59°07' E 009°37'0 0.0
2018-Feb-16 00:58N 59°07' E 009°37'0 0.0
2018-Feb-16 00:28N 59°07' E 009°37'0 0.0
2018-Feb-15 23:58N 59°07' E 009°37'0 0.0
2018-Feb-15 23:28N 59°07' E 009°37'0 0.0
2018-Feb-15 22:58N 59°07' E 009°37'0 0.0
2018-Feb-15 22:28N 59°07' E 009°37'0 0.0
2018-Feb-15 21:58N 59°07' E 009°37'0 0.0
2018-Feb-15 21:28N 59°07' E 009°37'0 0.0
2018-Feb-15 20:58N 59°07' E 009°37'0 0.0
2018-Feb-15 20:28N 59°07' E 009°37'0 0.0
2018-Feb-15 19:58N 59°07' E 009°37'0 0.0
2018-Feb-15 19:28N 59°07' E 009°37'0 0.0
2018-Feb-15 18:58N 59°07' E 009°37'0 0.0
2018-Feb-15 18:28N 59°07' E 009°37'0 0.0
2018-Feb-15 17:58N 59°07' E 009°37'0 0.0
2018-Feb-15 17:28N 59°07' E 009°37'0 0.0
2018-Feb-15 16:58N 59°07' E 009°37'0 0.0
2018-Feb-15 16:28N 59°07' E 009°37'0 0.0
2018-Feb-15 15:58N 59°07' E 009°37'0 0.0
2018-Feb-15 15:28N 59°07' E 009°37'0 0.0
2018-Feb-15 14:58N 59°07' E 009°37'0 0.0
2018-Feb-15 14:28N 59°07' E 009°37'0 0.0
2018-Feb-15 13:58N 59°07' E 009°37'0 0.0
2018-Feb-15 13:28N 59°07' E 009°37'0 0.0
2018-Feb-15 12:58N 59°07' E 009°37'0 0.0
2018-Feb-15 12:28N 59°07' E 009°37'0 0.0
2018-Feb-15 11:58N 59°07' E 009°37'0 0.0
2018-Feb-15 11:28N 59°07' E 009°37'0 0.0
2018-Feb-15 10:58N 59°07' E 009°37'0 0.0
2018-Feb-15 10:28N 59°07' E 009°37'0 0.0
2018-Feb-15 10:00N 59°07' E 009°37'3 5.9
2018-Feb-15 09:30N 59°05' E 009°38'5 9.6
2018-Feb-15 09:00N 59°02' E 009°46'4 8.6
2018-Feb-15 08:30N 58°58' E 009°47'612.4
2018-Feb-15 08:00N 58°52' E 009°47'612.3
2018-Feb-15 07:30N 58°45' E 009°47'612.9
2018-Feb-15 07:00N 58°39' E 009°46'46912.3
2018-Feb-13 17:03N 52°11' E 002°03'112.2
2018-Feb-13 17:00N 52°11' E 002°03'612.5
2018-Feb-13 16:30N 52°05' E 001°58'713.2
2018-Feb-13 16:01N 51°59' E 001°53'713.8
2018-Feb-13 15:30N 51°53' E 001°49'714.2
2018-Feb-13 15:00N 51°46' E 001°49'714.4
2018-Feb-13 14:30N 51°39' E 001°48'713.8
2018-Feb-13 14:00N 51°34' E 001°41'713.3
2018-Feb-13 13:30N 51°30' E 001°32'612.9
2018-Feb-13 13:00N 51°29' E 001°22'713.5
2018-Feb-13 12:30N 51°29' E 001°11'713.3
2018-Feb-13 12:00N 51°29' E 001°00'511.0
2018-Feb-13 11:30N 51°29' E 000°52'612.0
2018-Feb-13 11:00N 51°30' E 000°42'611.3
2018-Feb-13 10:30N 51°30' E 000°33'510.0
2018-Feb-13 10:00N 51°27' E 000°26'4 7.9
2018-Feb-13 09:30N 51°27' E 000°20'0 0.0
2018-Feb-13 09:00N 51°27' E 000°20'0 0.0
2018-Feb-13 08:30N 51°27' E 000°20'0 0.0
2018-Feb-13 08:00N 51°27' E 000°20'0 0.0
2018-Feb-13 07:30N 51°27' E 000°20'0 0.0
2018-Feb-13 07:01N 51°27' E 000°20'0 0.0
2018-Feb-13 06:30N 51°27' E 000°20'0 0.0
2018-Feb-13 06:00N 51°27' E 000°20'0 0.0
2018-Feb-13 05:30N 51°27' E 000°20'0 0.0
2018-Feb-13 05:00N 51°27' E 000°20'0 0.0
2018-Feb-13 04:30N 51°27' E 000°20'0 0.0
2018-Feb-13 04:00N 51°27' E 000°20'0 0.0
2018-Feb-13 03:30N 51°27' E 000°20'0 0.0
2018-Feb-13 03:00N 51°27' E 000°20'0 0.0
2018-Feb-13 02:30N 51°27' E 000°20'0 0.0
2018-Feb-13 02:00N 51°27' E 000°20'0 0.0
2018-Feb-13 01:30N 51°27' E 000°20'  
Track history (hours):
 
Tides and Currents Weather Stations Pressure Air Temp Water Temp Dewpoint Dewpoint Depression Visibility Wind Speed Wind Dir Waves Ship Positions

Arklow Rogue

Last reported at 2018-Feb-23 01:01 UTC. Time now 2018-Feb-23 01:12 UTC.
Position N 43°41' W 005°42'.

Length 90 m; draft 3.4 m.

Type: Cargo ship. MMSI: 250000960.

Date/timePositionNaut miles runAvg speedWind from/ knotsBaromVisibWave heightAir tempDewpointWater temp
2018-Feb-23 01:01N 43°41' W 005°42'611.4
2018-Feb-23 00:31N 43°41' W 005°34'611.5
2018-Feb-23 00:00N 43°40' W 005°26'611.7
2018-Feb-22 23:31N 43°39' W 005°18'611.6
2018-Feb-22 23:00N 43°38' W 005°10'61 2.8
2018-Feb-22 01:05N 43°33' W 003°46'111.3
2018-Feb-22 01:00N 43°34' W 003°47'24411.2
2018-Feb-21 03:14N 47°31' W 005°05'310.6
2018-Feb-21 03:00N 47°34' W 005°06'510.5
2018-Feb-21 02:30N 47°39' W 005°07'510.7
2018-Feb-21 02:00N 47°44' W 005°09'611.0
2018-Feb-21 01:30N 47°49' W 005°11'611.3
2018-Feb-21 01:01N 47°55' W 005°13'611.7
2018-Feb-21 00:30N 48°01' W 005°15'612.0
2018-Feb-21 00:01N 48°06' W 005°17'612.0
2018-Feb-20 23:30N 48°12' W 005°20'612.2
2018-Feb-20 23:00N 48°18' W 005°23'612.1
2018-Feb-20 22:30N 48°24' W 005°25'612.0
2018-Feb-20 22:00N 48°30' W 005°26'510.7
2018-Feb-20 21:29N 48°34' W 005°20'510.5
2018-Feb-20 21:00N 48°38' W 005°15'5 9.5
2018-Feb-20 20:30N 48°41' W 005°10'5 9.2
2018-Feb-20 20:00N 48°44' W 005°05'4 8.5
2018-Feb-20 19:30N 48°47' W 005°00'4 8.3
2018-Feb-20 19:00N 48°50' W 004°55'4 8.1
2018-Feb-20 18:30N 48°52' W 004°51'4 8.2
2018-Feb-20 18:00N 48°55' W 004°46'6 8.6
2018-Feb-20 17:21N 48°59' W 004°40'6910.8
2018-Feb-20 10:56N 49°45' W 003°20'4 9.4
2018-Feb-20 10:30N 49°48' W 003°16'5 9.1
2018-Feb-20 10:00N 49°51' W 003°10'4 8.9
2018-Feb-20 09:30N 49°53' W 003°04'4 8.8
2018-Feb-20 09:00N 49°56' W 002°59'5 8.8
2018-Feb-20 08:28N 49°58' W 002°53'4 9.3
2018-Feb-20 08:00N 49°60' W 002°46'510.0
2018-Feb-20 07:30N 50°01' W 002°39'510.6
2018-Feb-20 07:00N 50°03' W 002°31'2913.2
2018-Feb-20 04:47N 50°11' W 001°47'414.6
2018-Feb-20 04:28N 50°13' W 001°40'714.5
2018-Feb-20 04:00N 50°14' W 001°30'714.2
2018-Feb-20 03:30N 50°16' W 001°20'3611.4
2018-Feb-20 00:23N 50°27' W 000°26'3 9.3
2018-Feb-20 00:00N 50°28' W 000°21'4 8.7
2018-Feb-19 23:30N 50°29' W 000°14'4 8.9
2018-Feb-19 23:00N 50°30' W 000°07'5 9.0
2018-Feb-19 22:30N 50°31' W 000°01'5 9.3
2018-Feb-19 22:00N 50°33' E 000°06'1510.5
2018-Feb-19 20:35N 50°37' E 000°29'111.7
2018-Feb-19 20:30N 50°37' E 000°31'611.9
2018-Feb-19 20:00N 50°40' E 000°38'612.6
2018-Feb-19 19:30N 50°44' E 000°47'612.7
2018-Feb-19 19:00N 50°47' E 000°55'612.4
2018-Feb-19 18:28N 50°51' E 001°03'612.0
2018-Feb-19 18:00N 50°55' E 001°10'611.6
2018-Feb-19 17:30N 50°59' E 001°17'510.7
2018-Feb-19 17:00N 51°02' E 001°24'510.0
2018-Feb-19 16:30N 51°05' E 001°30'4 8.6
2018-Feb-19 16:00N 51°08' E 001°35'4 7.8
2018-Feb-19 15:30N 51°11' E 001°38'4 7.8
2018-Feb-19 15:00N 51°15' E 001°41'4 8.2
2018-Feb-19 14:30N 51°19' E 001°43'4 8.6
2018-Feb-19 14:00N 51°23' E 001°45'5 9.6
2018-Feb-19 13:30N 51°27' E 001°48'510.4
2018-Feb-19 13:00N 51°32' E 001°52'611.4
2018-Feb-19 12:30N 51°36' E 001°58'712.6
2018-Feb-19 11:59N 51°41' E 002°05'37310.6
2018-Feb-18 00:46N 56°56' E 007°46'310.8
2018-Feb-18 00:30N 56°59' E 007°49'610.8
2018-Feb-17 23:59N 57°03' E 007°55'510.6
2018-Feb-17 23:30N 57°08' E 007°60'510.6
2018-Feb-17 23:00N 57°12' E 008°05'8511.1
2018-Feb-17 15:20N 58°26' E 009°25'412.2
2018-Feb-17 15:00N 58°30' E 009°28'612.1
2018-Feb-17 14:30N 58°35' E 009°32'612.6
2018-Feb-17 14:00N 58°41' E 009°36'713.5
2018-Feb-17 13:30N 58°47' E 009°41'612.5
2018-Feb-17 13:00N 58°53' E 009°45'611.6
2018-Feb-17 12:30N 58°59' E 009°47'5 9.3
2018-Feb-17 12:00N 59°03' E 009°42'5 9.1
2018-Feb-17 11:30N 59°07' E 009°37'1 1.2
2018-Feb-17 10:58N 59°07' E 009°37'0 0.0
2018-Feb-17 10:28N 59°07' E 009°37'0 0.0
2018-Feb-17 09:58N 59°07' E 009°37'0 0.0
2018-Feb-17 09:28N 59°07' E 009°37'0 0.0
2018-Feb-17 08:58N 59°07' E 009°37'0 0.0
2018-Feb-17 08:28N 59°07' E 009°37'0 0.0
2018-Feb-17 07:58N 59°07' E 009°37'0 0.0
2018-Feb-17 07:28N 59°07' E 009°37'0 0.0
2018-Feb-17 06:58N 59°07' E 009°37'0 0.0
2018-Feb-17 06:28N 59°07' E 009°37'0 0.0
2018-Feb-17 05:58N 59°07' E 009°37'0 0.0
2018-Feb-17 05:28N 59°07' E 009°37'0 0.0
2018-Feb-17 04:58N 59°07' E 009°37'0 0.0
2018-Feb-17 04:28N 59°07' E 009°37'0 0.0
2018-Feb-17 03:58N 59°07' E 009°37'0 0.0
2018-Feb-17 03:28N 59°07' E 009°37'0 0.0
2018-Feb-17 02:58N 59°07' E 009°37'0 0.0
2018-Feb-17 02:28N 59°07' E 009°37'0 0.0
2018-Feb-17 01:58N 59°07' E 009°37'0 0.0
2018-Feb-17 01:28N 59°07' E 009°37'0 0.0
2018-Feb-17 00:58N 59°07' E 009°37'0 0.0
2018-Feb-17 00:28N 59°07' E 009°37'0 0.0
2018-Feb-16 23:58N 59°07' E 009°37'0 0.0
2018-Feb-16 23:28N 59°07' E 009°37'0 0.0
2018-Feb-16 22:58N 59°07' E 009°37'0 0.0
2018-Feb-16 22:28N 59°07' E 009°37'0 0.0
2018-Feb-16 21:58N 59°07' E 009°37'0 0.0
2018-Feb-16 21:28N 59°07' E 009°37'0 0.0
2018-Feb-16 20:58N 59°07' E 009°37'0 0.0
2018-Feb-16 20:28N 59°07' E 009°37'0 0.0
2018-Feb-16 19:58N 59°07' E 009°37'0 0.0
2018-Feb-16 19:28N 59°07' E 009°37'0 0.0
2018-Feb-16 18:58N 59°07' E 009°37'0 0.0
2018-Feb-16 18:28N 59°07' E 009°37'0 0.0
2018-Feb-16 17:58N 59°07' E 009°37'0 0.0
2018-Feb-16 17:28N 59°07' E 009°37'0 0.0
2018-Feb-16 16:58N 59°07' E 009°37'0 0.0
2018-Feb-16 16:28N 59°07' E 009°37'0 0.0
2018-Feb-16 15:58N 59°07' E 009°37'0 0.0
2018-Feb-16 15:28N 59°07' E 009°37'0 0.0
2018-Feb-16 14:58N 59°07' E 009°37'0 0.0
2018-Feb-16 14:28N 59°07' E 009°37'0 0.0
2018-Feb-16 13:58N 59°07' E 009°37'0 0.0
2018-Feb-16 13:28N 59°07' E 009°37'0 0.0
2018-Feb-16 12:58N 59°07' E 009°37'0 0.0
2018-Feb-16 12:28N 59°07' E 009°37'0 0.0
2018-Feb-16 11:58N 59°07' E 009°37'0 0.0
2018-Feb-16 11:28N 59°07' E 009°37'0 0.0
2018-Feb-16 10:58N 59°07' E 009°37'0 0.2
2018-Feb-16 10:28N 59°07' E 009°37'0 0.0
2018-Feb-16 09:58N 59°07' E 009°37'0 0.0
2018-Feb-16 09:28N 59°07' E 009°37'0 0.0
2018-Feb-16 08:58N 59°07' E 009°37'0 0.0
2018-Feb-16 08:28N 59°07' E 009°37'0 0.0
2018-Feb-16 07:58N 59°07' E 009°37'0 0.0
2018-Feb-16 07:28N 59°07' E 009°37'0 0.0
2018-Feb-16 06:58N 59°07' E 009°37'0 0.0
2018-Feb-16 06:28N 59°07' E 009°37'0 0.0
2018-Feb-16 05:58N 59°07' E 009°37'0 0.0
2018-Feb-16 05:28N 59°07' E 009°37'0 0.0
2018-Feb-16 04:58N 59°07' E 009°37'0 0.0
2018-Feb-16 04:28N 59°07' E 009°37'0 0.0
2018-Feb-16 03:58N 59°07' E 009°37'0 0.0
2018-Feb-16 03:28N 59°07' E 009°37'0 0.0
2018-Feb-16 02:58N 59°07' E 009°37'0 0.0
2018-Feb-16 02:28N 59°07' E 009°37'0 0.0
2018-Feb-16 01:58N 59°07' E 009°37'0 0.0
2018-Feb-16 01:28N 59°07' E 009°37'0 0.0
2018-Feb-16 00:58N 59°07' E 009°37'0 0.0
2018-Feb-16 00:28N 59°07' E 009°37'0 0.0
2018-Feb-15 23:58N 59°07' E 009°37'0 0.0
2018-Feb-15 23:28N 59°07' E 009°37'0 0.0
2018-Feb-15 22:58N 59°07' E 009°37'0 0.0
2018-Feb-15 22:28N 59°07' E 009°37'0 0.0
2018-Feb-15 21:58N 59°07' E 009°37'0 0.0
2018-Feb-15 21:28N 59°07' E 009°37'0 0.0
2018-Feb-15 20:58N 59°07' E 009°37'0 0.0
2018-Feb-15 20:28N 59°07' E 009°37'0 0.0
2018-Feb-15 19:58N 59°07' E 009°37'0 0.0
2018-Feb-15 19:28N 59°07' E 009°37'0 0.0
2018-Feb-15 18:58N 59°07' E 009°37'0 0.0
2018-Feb-15 18:28N 59°07' E 009°37'0 0.0
2018-Feb-15 17:58N 59°07' E 009°37'0 0.0
2018-Feb-15 17:28N 59°07' E 009°37'0 0.0
2018-Feb-15 16:58N 59°07' E 009°37'0 0.0
2018-Feb-15 16:28N 59°07' E 009°37'0 0.0
2018-Feb-15 15:58N 59°07' E 009°37'0 0.0
2018-Feb-15 15:28N 59°07' E 009°37'0 0.0
2018-Feb-15 14:58N 59°07' E 009°37'0 0.0
2018-Feb-15 14:28N 59°07' E 009°37'0 0.0
2018-Feb-15 13:58N 59°07' E 009°37'0 0.0
2018-Feb-15 13:28N 59°07' E 009°37'0 0.0
2018-Feb-15 12:58N 59°07' E 009°37'0 0.0
2018-Feb-15 12:28N 59°07' E 009°37'0 0.0
2018-Feb-15 11:58N 59°07' E 009°37'0 0.0
2018-Feb-15 11:28N 59°07' E 009°37'0 0.0
2018-Feb-15 10:58N 59°07' E 009°37'0 0.0
2018-Feb-15 10:28N 59°07' E 009°37'0 0.0
2018-Feb-15 10:00N 59°07' E 009°37'3 5.9
2018-Feb-15 09:30N 59°05' E 009°38'5 9.6
2018-Feb-15 09:00N 59°02' E 009°46'4 8.6
2018-Feb-15 08:30N 58°58' E 009°47'612.4
2018-Feb-15 08:00N 58°52' E 009°47'612.3
2018-Feb-15 07:30N 58°45' E 009°47'612.9
2018-Feb-15 07:00N 58°39' E 009°46'46912.3
2018-Feb-13 17:03N 52°11' E 002°03'112.2
2018-Feb-13 17:00N 52°11' E 002°03'612.5
2018-Feb-13 16:30N 52°05' E 001°58'713.2
2018-Feb-13 16:01N 51°59' E 001°53'713.8
2018-Feb-13 15:30N 51°53' E 001°49'714.2
2018-Feb-13 15:00N 51°46' E 001°49'714.4
2018-Feb-13 14:30N 51°39' E 001°48'713.8
2018-Feb-13 14:00N 51°34' E 001°41'713.3
2018-Feb-13 13:30N 51°30' E 001°32'612.9
2018-Feb-13 13:00N 51°29' E 001°22'713.5
2018-Feb-13 12:30N 51°29' E 001°11'713.3
2018-Feb-13 12:00N 51°29' E 001°00'511.0
2018-Feb-13 11:30N 51°29' E 000°52'612.0
2018-Feb-13 11:00N 51°30' E 000°42'611.3
2018-Feb-13 10:30N 51°30' E 000°33'510.0
2018-Feb-13 10:00N 51°27' E 000°26'4 7.9
2018-Feb-13 09:30N 51°27' E 000°20'0 0.0
2018-Feb-13 09:00N 51°27' E 000°20'0 0.0
2018-Feb-13 08:30N 51°27' E 000°20'0 0.0
2018-Feb-13 08:00N 51°27' E 000°20'0 0.0
2018-Feb-13 07:30N 51°27' E 000°20'0 0.0
2018-Feb-13 07:01N 51°27' E 000°20'0 0.0
2018-Feb-13 06:30N 51°27' E 000°20'0 0.0
2018-Feb-13 06:00N 51°27' E 000°20'0 0.0
2018-Feb-13 05:30N 51°27' E 000°20'0 0.0
2018-Feb-13 05:00N 51°27' E 000°20'0 0.0
2018-Feb-13 04:30N 51°27' E 000°20'0 0.0
2018-Feb-13 04:00N 51°27' E 000°20'0 0.0
2018-Feb-13 03:30N 51°27' E 000°20'0 0.0
2018-Feb-13 03:00N 51°27' E 000°20'0 0.0
2018-Feb-13 02:30N 51°27' E 000°20'0 0.0
2018-Feb-13 02:00N 51°27' E 000°20'0 0.0
2018-Feb-13 01:30N 51°27' E 000°20'  

Dump ship's entire track history